sensor_id;sensor_type;location;lat;lon;timestamp;P1;durP1;ratioP1;P2;durP2;ratioP2
51810;SDS011;52468;40.116;18.296;2022-08-27T00:01:18;21.40;;;11.77;;
51810;SDS011;52468;40.116;18.296;2022-08-27T00:03:47;18.70;;;11.73;;
51810;SDS011;52468;40.116;18.296;2022-08-27T00:06:15;16.97;;;10.67;;
51810;SDS011;52468;40.116;18.296;2022-08-27T00:08:45;23.17;;;13.43;;
51810;SDS011;52468;40.116;18.296;2022-08-27T00:11:15;16.73;;;11.77;;
51810;SDS011;52468;40.116;18.296;2022-08-27T00:13:44;19.83;;;12.47;;
51810;SDS011;52468;40.116;18.296;2022-08-27T00:16:13;19.57;;;11.87;;
51810;SDS011;52468;40.116;18.296;2022-08-27T00:18:43;24.13;;;11.33;;
51810;SDS011;52468;40.116;18.296;2022-08-27T00:21:11;18.63;;;12.37;;
51810;SDS011;52468;40.116;18.296;2022-08-27T00:23:40;18.37;;;11.77;;
51810;SDS011;52468;40.116;18.296;2022-08-27T00:26:08;23.23;;;12.13;;
51810;SDS011;52468;40.116;18.296;2022-08-27T00:28:36;19.93;;;11.60;;
51810;SDS011;52468;40.116;18.296;2022-08-27T00:31:04;24.33;;;13.53;;
51810;SDS011;52468;40.116;18.296;2022-08-27T00:33:32;26.63;;;15.10;;
51810;SDS011;52468;40.116;18.296;2022-08-27T00:36:02;22.67;;;12.90;;
51810;SDS011;52468;40.116;18.296;2022-08-27T00:38:30;19.90;;;13.03;;
51810;SDS011;52468;40.116;18.296;2022-08-27T00:40:58;20.70;;;13.17;;
51810;SDS011;52468;40.116;18.296;2022-08-27T00:43:28;22.03;;;12.10;;
51810;SDS011;52468;40.116;18.296;2022-08-27T00:46:10;23.57;;;12.43;;
51810;SDS011;52468;40.116;18.296;2022-08-27T00:48:47;18.37;;;12.03;;
51810;SDS011;52468;40.116;18.296;2022-08-27T00:51:17;19.03;;;12.40;;
51810;SDS011;52468;40.116;18.296;2022-08-27T00:53:47;20.23;;;12.77;;
51810;SDS011;52468;40.116;18.296;2022-08-27T00:56:27;19.13;;;13.30;;
51810;SDS011;52468;40.116;18.296;2022-08-27T00:59:00;19.10;;;13.87;;
51810;SDS011;52468;40.116;18.296;2022-08-27T01:01:31;21.97;;;13.97;;
51810;SDS011;52468;40.116;18.296;2022-08-27T01:04:01;21.03;;;13.10;;
51810;SDS011;52468;40.116;18.296;2022-08-27T01:06:33;22.50;;;11.90;;
51810;SDS011;52468;40.116;18.296;2022-08-27T01:09:04;21.70;;;13.00;;
51810;SDS011;52468;40.116;18.296;2022-08-27T01:11:36;18.05;;;12.63;;
51810;SDS011;52468;40.116;18.296;2022-08-27T01:14:05;19.70;;;12.40;;
51810;SDS011;52468;40.116;18.296;2022-08-27T01:16:36;21.10;;;12.33;;
51810;SDS011;52468;40.116;18.296;2022-08-27T01:19:09;19.00;;;12.63;;
51810;SDS011;52468;40.116;18.296;2022-08-27T01:22:04;27.80;;;14.20;;
51810;SDS011;52468;40.116;18.296;2022-08-27T01:24:41;21.13;;;14.13;;
51810;SDS011;52468;40.116;18.296;2022-08-27T01:27:12;24.93;;;14.00;;
51810;SDS011;52468;40.116;18.296;2022-08-27T01:29:47;20.53;;;14.47;;
51810;SDS011;52468;40.116;18.296;2022-08-27T01:32:19;22.20;;;14.40;;
51810;SDS011;52468;40.116;18.296;2022-08-27T01:34:49;24.33;;;14.73;;
51810;SDS011;52468;40.116;18.296;2022-08-27T01:37:20;27.37;;;15.40;;
51810;SDS011;52468;40.116;18.296;2022-08-27T01:39:48;21.30;;;14.43;;
51810;SDS011;52468;40.116;18.296;2022-08-27T01:42:18;23.93;;;13.97;;
51810;SDS011;52468;40.116;18.296;2022-08-27T01:47:20;17.03;;;13.80;;
51810;SDS011;52468;40.116;18.296;2022-08-27T01:49:49;20.17;;;13.93;;
51810;SDS011;52468;40.116;18.296;2022-08-27T01:52:18;26.60;;;14.97;;
51810;SDS011;52468;40.116;18.296;2022-08-27T01:54:47;19.87;;;14.47;;
51810;SDS011;52468;40.116;18.296;2022-08-27T01:57:17;23.90;;;15.13;;
51810;SDS011;52468;40.116;18.296;2022-08-27T01:59:48;20.43;;;16.00;;
51810;SDS011;52468;40.116;18.296;2022-08-27T02:02:16;23.17;;;14.83;;
51810;SDS011;52468;40.116;18.296;2022-08-27T02:04:44;29.53;;;17.63;;
51810;SDS011;52468;40.116;18.296;2022-08-27T02:07:12;25.60;;;16.87;;
51810;SDS011;52468;40.116;18.296;2022-08-27T02:09:40;25.00;;;15.67;;
51810;SDS011;52468;40.116;18.296;2022-08-27T02:12:08;27.43;;;16.60;;
51810;SDS011;52468;40.116;18.296;2022-08-27T02:14:36;21.20;;;15.27;;
51810;SDS011;52468;40.116;18.296;2022-08-27T02:17:04;30.03;;;15.63;;
51810;SDS011;52468;40.116;18.296;2022-08-27T02:19:32;20.07;;;14.83;;
51810;SDS011;52468;40.116;18.296;2022-08-27T02:21:59;30.77;;;15.90;;
51810;SDS011;52468;40.116;18.296;2022-08-27T02:24:27;28.63;;;15.90;;
51810;SDS011;52468;40.116;18.296;2022-08-27T02:26:55;23.27;;;14.47;;
51810;SDS011;52468;40.116;18.296;2022-08-27T02:29:23;26.87;;;14.80;;
51810;SDS011;52468;40.116;18.296;2022-08-27T02:31:51;22.13;;;14.13;;
51810;SDS011;52468;40.116;18.296;2022-08-27T02:34:20;26.87;;;15.03;;
51810;SDS011;52468;40.116;18.296;2022-08-27T02:36:49;28.90;;;15.67;;
51810;SDS011;52468;40.116;18.296;2022-08-27T02:39:17;28.40;;;15.50;;
51810;SDS011;52468;40.116;18.296;2022-08-27T02:41:44;26.13;;;14.77;;
51810;SDS011;52468;40.116;18.296;2022-08-27T02:44:13;18.40;;;14.33;;
51810;SDS011;52468;40.116;18.296;2022-08-27T02:46:41;25.43;;;15.80;;
51810;SDS011;52468;40.116;18.296;2022-08-27T02:49:09;21.87;;;13.53;;
51810;SDS011;52468;40.116;18.296;2022-08-27T02:51:37;24.50;;;14.10;;
51810;SDS011;52468;40.116;18.296;2022-08-27T02:54:05;27.40;;;15.07;;
51810;SDS011;52468;40.116;18.296;2022-08-27T02:56:33;22.03;;;15.00;;
51810;SDS011;52468;40.116;18.296;2022-08-27T02:59:01;22.07;;;14.47;;
51810;SDS011;52468;40.116;18.296;2022-08-27T03:01:29;27.23;;;16.17;;
51810;SDS011;52468;40.116;18.296;2022-08-27T03:03:57;24.60;;;16.47;;
51810;SDS011;52468;40.116;18.296;2022-08-27T03:06:25;24.73;;;17.43;;
51810;SDS011;52468;40.116;18.296;2022-08-27T03:08:53;30.50;;;17.57;;
51810;SDS011;52468;40.116;18.296;2022-08-27T03:11:21;24.03;;;17.97;;
51810;SDS011;52468;40.116;18.296;2022-08-27T03:13:49;29.87;;;18.90;;
51810;SDS011;52468;40.116;18.296;2022-08-27T03:16:18;23.60;;;16.03;;
51810;SDS011;52468;40.116;18.296;2022-08-27T03:18:46;23.23;;;16.13;;
51810;SDS011;52468;40.116;18.296;2022-08-27T03:21:18;32.30;;;18.77;;
51810;SDS011;52468;40.116;18.296;2022-08-27T03:23:48;31.63;;;17.63;;
51810;SDS011;52468;40.116;18.296;2022-08-27T03:26:17;27.17;;;16.87;;
51810;SDS011;52468;40.116;18.296;2022-08-27T03:28:45;26.57;;;18.50;;
51810;SDS011;52468;40.116;18.296;2022-08-27T03:31:18;30.50;;;18.23;;
51810;SDS011;52468;40.116;18.296;2022-08-27T03:33:53;29.60;;;18.93;;
51810;SDS011;52468;40.116;18.296;2022-08-27T03:36:24;31.07;;;17.80;;
51810;SDS011;52468;40.116;18.296;2022-08-27T03:38:53;28.40;;;18.80;;
51810;SDS011;52468;40.116;18.296;2022-08-27T03:41:22;32.30;;;18.77;;
51810;SDS011;52468;40.116;18.296;2022-08-27T03:43:51;27.70;;;17.43;;
51810;SDS011;52468;40.116;18.296;2022-08-27T03:46:19;35.50;;;19.87;;
51810;SDS011;52468;40.116;18.296;2022-08-27T03:48:48;30.27;;;17.90;;
51810;SDS011;52468;40.116;18.296;2022-08-27T03:51:16;28.97;;;19.13;;
51810;SDS011;52468;40.116;18.296;2022-08-27T03:53:45;31.23;;;21.27;;
51810;SDS011;52468;40.116;18.296;2022-08-27T03:56:13;30.17;;;19.43;;
51810;SDS011;52468;40.116;18.296;2022-08-27T03:58:41;31.10;;;19.50;;
51810;SDS011;52468;40.116;18.296;2022-08-27T04:01:09;35.83;;;21.63;;
51810;SDS011;52468;40.116;18.296;2022-08-27T04:03:37;42.80;;;21.03;;
51810;SDS011;52468;40.116;18.296;2022-08-27T04:06:05;28.70;;;18.20;;
51810;SDS011;52468;40.116;18.296;2022-08-27T04:08:33;33.53;;;18.63;;
51810;SDS011;52468;40.116;18.296;2022-08-27T04:11:04;28.70;;;18.53;;
51810;SDS011;52468;40.116;18.296;2022-08-27T04:13:33;33.30;;;20.00;;
51810;SDS011;52468;40.116;18.296;2022-08-27T04:16:01;28.93;;;20.03;;
51810;SDS011;52468;40.116;18.296;2022-08-27T04:18:31;31.57;;;18.57;;
51810;SDS011;52468;40.116;18.296;2022-08-27T04:21:05;46.53;;;19.43;;
51810;SDS011;52468;40.116;18.296;2022-08-27T04:23:35;36.57;;;21.63;;
51810;SDS011;52468;40.116;18.296;2022-08-27T04:26:05;31.60;;;21.40;;
51810;SDS011;52468;40.116;18.296;2022-08-27T04:28:34;35.73;;;21.53;;
51810;SDS011;52468;40.116;18.296;2022-08-27T04:31:04;34.17;;;23.17;;
51810;SDS011;52468;40.116;18.296;2022-08-27T04:33:33;38.07;;;21.83;;
51810;SDS011;52468;40.116;18.296;2022-08-27T04:36:02;39.93;;;24.20;;
51810;SDS011;52468;40.116;18.296;2022-08-27T04:38:32;35.10;;;23.20;;
51810;SDS011;52468;40.116;18.296;2022-08-27T04:41:07;31.43;;;20.43;;
51810;SDS011;52468;40.116;18.296;2022-08-27T04:43:53;36.10;;;20.93;;
51810;SDS011;52468;40.116;18.296;2022-08-27T04:46:24;31.77;;;19.50;;
51810;SDS011;52468;40.116;18.296;2022-08-27T04:48:55;27.57;;;18.00;;
51810;SDS011;52468;40.116;18.296;2022-08-27T04:51:26;34.27;;;19.77;;
51810;SDS011;52468;40.116;18.296;2022-08-27T04:53:55;26.37;;;15.80;;
51810;SDS011;52468;40.116;18.296;2022-08-27T04:56:28;28.67;;;19.10;;
51810;SDS011;52468;40.116;18.296;2022-08-27T04:58:57;30.97;;;18.87;;
51810;SDS011;52468;40.116;18.296;2022-08-27T05:01:25;34.23;;;19.53;;
51810;SDS011;52468;40.116;18.296;2022-08-27T05:03:54;25.93;;;16.27;;
51810;SDS011;52468;40.116;18.296;2022-08-27T05:06:24;34.53;;;18.77;;
51810;SDS011;52468;40.116;18.296;2022-08-27T05:08:53;26.00;;;16.23;;
51810;SDS011;52468;40.116;18.296;2022-08-27T05:11:22;24.33;;;15.90;;
51810;SDS011;52468;40.116;18.296;2022-08-27T05:13:52;24.53;;;15.70;;
51810;SDS011;52468;40.116;18.296;2022-08-27T05:16:21;25.37;;;15.90;;
51810;SDS011;52468;40.116;18.296;2022-08-27T05:18:51;24.50;;;15.63;;
51810;SDS011;52468;40.116;18.296;2022-08-27T05:23:49;22.80;;;14.90;;
51810;SDS011;52468;40.116;18.296;2022-08-27T05:26:18;22.00;;;13.60;;
51810;SDS011;52468;40.116;18.296;2022-08-27T05:28:47;22.10;;;13.43;;
51810;SDS011;52468;40.116;18.296;2022-08-27T05:31:15;18.50;;;13.77;;
51810;SDS011;52468;40.116;18.296;2022-08-27T05:33:45;20.70;;;14.00;;
51810;SDS011;52468;40.116;18.296;2022-08-27T05:36:18;24.30;;;15.03;;
51810;SDS011;52468;40.116;18.296;2022-08-27T05:38:48;24.77;;;15.90;;
51810;SDS011;52468;40.116;18.296;2022-08-27T05:41:17;23.97;;;15.87;;
51810;SDS011;52468;40.116;18.296;2022-08-27T05:43:47;20.47;;;14.10;;
51810;SDS011;52468;40.116;18.296;2022-08-27T05:46:17;17.70;;;14.00;;
51810;SDS011;52468;40.116;18.296;2022-08-27T05:48:48;21.10;;;13.07;;
51810;SDS011;52468;40.116;18.296;2022-08-27T05:53:47;21.03;;;14.30;;
51810;SDS011;52468;40.116;18.296;2022-08-27T05:56:17;25.03;;;14.20;;
51810;SDS011;52468;40.116;18.296;2022-08-27T05:58:47;23.90;;;13.97;;
51810;SDS011;52468;40.116;18.296;2022-08-27T06:01:38;23.47;;;13.77;;
51810;SDS011;52468;40.116;18.296;2022-08-27T06:04:08;22.13;;;13.77;;
51810;SDS011;52468;40.116;18.296;2022-08-27T06:06:38;22.30;;;11.57;;
51810;SDS011;52468;40.116;18.296;2022-08-27T06:09:09;15.00;;;9.83;;
51810;SDS011;52468;40.116;18.296;2022-08-27T06:11:39;17.87;;;10.03;;
51810;SDS011;52468;40.116;18.296;2022-08-27T06:14:07;21.50;;;10.63;;
51810;SDS011;52468;40.116;18.296;2022-08-27T06:16:36;13.10;;;9.77;;
51810;SDS011;52468;40.116;18.296;2022-08-27T06:19:05;17.10;;;8.80;;
51810;SDS011;52468;40.116;18.296;2022-08-27T06:21:34;11.63;;;8.07;;
51810;SDS011;52468;40.116;18.296;2022-08-27T06:24:02;13.73;;;8.30;;
51810;SDS011;52468;40.116;18.296;2022-08-27T06:26:30;11.70;;;8.47;;
51810;SDS011;52468;40.116;18.296;2022-08-27T06:29:02;15.43;;;8.97;;
51810;SDS011;52468;40.116;18.296;2022-08-27T06:31:31;15.70;;;8.93;;
51810;SDS011;52468;40.116;18.296;2022-08-27T06:34:02;15.97;;;9.00;;
51810;SDS011;52468;40.116;18.296;2022-08-27T06:36:31;15.40;;;7.40;;
51810;SDS011;52468;40.116;18.296;2022-08-27T06:39:01;12.17;;;7.40;;
51810;SDS011;52468;40.116;18.296;2022-08-27T06:41:29;11.67;;;8.30;;
51810;SDS011;52468;40.116;18.296;2022-08-27T06:43:58;12.13;;;6.65;;
51810;SDS011;52468;40.116;18.296;2022-08-27T06:46:27;9.85;;;7.28;;
51810;SDS011;52468;40.116;18.296;2022-08-27T06:48:56;8.73;;;7.28;;
51810;SDS011;52468;40.116;18.296;2022-08-27T06:51:26;10.37;;;6.43;;
51810;SDS011;52468;40.116;18.296;2022-08-27T06:54:00;10.00;;;7.80;;
51810;SDS011;52468;40.116;18.296;2022-08-27T06:56:30;9.38;;;5.47;;
51810;SDS011;52468;40.116;18.296;2022-08-27T06:58:59;7.63;;;5.85;;
51810;SDS011;52468;40.116;18.296;2022-08-27T07:01:35;7.38;;;5.47;;
51810;SDS011;52468;40.116;18.296;2022-08-27T07:04:07;9.50;;;5.80;;
51810;SDS011;52468;40.116;18.296;2022-08-27T07:06:38;7.60;;;4.90;;
51810;SDS011;52468;40.116;18.296;2022-08-27T07:09:08;6.97;;;4.93;;
51810;SDS011;52468;40.116;18.296;2022-08-27T07:11:36;9.48;;;6.07;;
51810;SDS011;52468;40.116;18.296;2022-08-27T07:14:04;8.20;;;5.38;;
51810;SDS011;52468;40.116;18.296;2022-08-27T07:16:33;6.85;;;5.10;;
51810;SDS011;52468;40.116;18.296;2022-08-27T07:19:02;12.18;;;5.78;;
51810;SDS011;52468;40.116;18.296;2022-08-27T07:21:32;7.35;;;5.53;;
51810;SDS011;52468;40.116;18.296;2022-08-27T07:24:01;6.43;;;5.53;;
51810;SDS011;52468;40.116;18.296;2022-08-27T07:26:31;9.55;;;5.68;;
51810;SDS011;52468;40.116;18.296;2022-08-27T07:29:02;7.80;;;5.65;;
51810;SDS011;52468;40.116;18.296;2022-08-27T07:31:34;7.93;;;5.70;;
51810;SDS011;52468;40.116;18.296;2022-08-27T07:34:03;5.82;;;4.43;;
51810;SDS011;52468;40.116;18.296;2022-08-27T07:36:34;5.03;;;3.55;;
51810;SDS011;52468;40.116;18.296;2022-08-27T07:39:04;6.95;;;3.75;;
51810;SDS011;52468;40.116;18.296;2022-08-27T07:41:32;5.03;;;4.28;;
51810;SDS011;52468;40.116;18.296;2022-08-27T07:44:24;6.88;;;4.10;;
51810;SDS011;52468;40.116;18.296;2022-08-27T07:46:53;6.28;;;4.50;;
51810;SDS011;52468;40.116;18.296;2022-08-27T07:49:22;6.40;;;4.70;;
51810;SDS011;52468;40.116;18.296;2022-08-27T07:51:50;6.57;;;4.55;;
51810;SDS011;52468;40.116;18.296;2022-08-27T07:54:20;6.65;;;4.30;;
51810;SDS011;52468;40.116;18.296;2022-08-27T07:56:49;7.40;;;3.92;;
51810;SDS011;52468;40.116;18.296;2022-08-27T07:59:17;6.05;;;4.93;;
51810;SDS011;52468;40.116;18.296;2022-08-27T08:01:45;5.72;;;4.43;;
51810;SDS011;52468;40.116;18.296;2022-08-27T08:04:15;5.68;;;3.80;;
51810;SDS011;52468;40.116;18.296;2022-08-27T08:06:45;6.07;;;4.13;;
51810;SDS011;52468;40.116;18.296;2022-08-27T08:09:13;5.78;;;5.03;;
51810;SDS011;52468;40.116;18.296;2022-08-27T08:11:41;5.85;;;4.07;;
51810;SDS011;52468;40.116;18.296;2022-08-27T08:14:09;8.07;;;4.18;;
51810;SDS011;52468;40.116;18.296;2022-08-27T08:16:37;8.00;;;5.20;;
51810;SDS011;52468;40.116;18.296;2022-08-27T08:19:05;5.75;;;4.20;;
51810;SDS011;52468;40.116;18.296;2022-08-27T08:21:37;7.63;;;4.57;;
51810;SDS011;52468;40.116;18.296;2022-08-27T08:24:05;4.90;;;3.65;;
51810;SDS011;52468;40.116;18.296;2022-08-27T08:26:33;10.98;;;5.00;;
51810;SDS011;52468;40.116;18.296;2022-08-27T08:29:02;5.55;;;4.40;;
51810;SDS011;52468;40.116;18.296;2022-08-27T08:31:31;6.53;;;3.95;;
51810;SDS011;52468;40.116;18.296;2022-08-27T08:33:59;5.20;;;4.30;;
51810;SDS011;52468;40.116;18.296;2022-08-27T08:36:27;7.60;;;4.28;;
51810;SDS011;52468;40.116;18.296;2022-08-27T08:38:55;5.82;;;4.65;;
51810;SDS011;52468;40.116;18.296;2022-08-27T08:43:58;5.90;;;4.57;;
51810;SDS011;52468;40.116;18.296;2022-08-27T08:46:33;10.02;;;4.18;;
51810;SDS011;52468;40.116;18.296;2022-08-27T08:52:16;5.80;;;4.57;;
51810;SDS011;52468;40.116;18.296;2022-08-27T08:54:57;5.32;;;4.22;;
51810;SDS011;52468;40.116;18.296;2022-08-27T08:57:48;6.00;;;4.03;;
51810;SDS011;52468;40.116;18.296;2022-08-27T09:00:22;5.57;;;4.38;;
51810;SDS011;52468;40.116;18.296;2022-08-27T09:02:53;7.28;;;4.22;;
51810;SDS011;52468;40.116;18.296;2022-08-27T09:05:21;7.93;;;5.47;;
51810;SDS011;52468;40.116;18.296;2022-08-27T09:10:51;7.47;;;4.70;;
51810;SDS011;52468;40.116;18.296;2022-08-27T09:15:56;9.30;;;4.72;;
51810;SDS011;52468;40.116;18.296;2022-08-27T09:18:27;7.93;;;4.78;;
51810;SDS011;52468;40.116;18.296;2022-08-27T09:21:01;12.13;;;4.97;;
51810;SDS011;52468;40.116;18.296;2022-08-27T09:24:13;16.08;;;4.95;;
51810;SDS011;52468;40.116;18.296;2022-08-27T09:26:41;10.25;;;4.75;;
51810;SDS011;52468;40.116;18.296;2022-08-27T09:29:12;13.63;;;6.38;;
51810;SDS011;52468;40.116;18.296;2022-08-27T09:31:52;6.95;;;4.68;;
51810;SDS011;52468;40.116;18.296;2022-08-27T09:34:38;8.73;;;5.00;;
51810;SDS011;52468;40.116;18.296;2022-08-27T09:42:35;7.22;;;4.03;;
51810;SDS011;52468;40.116;18.296;2022-08-27T09:45:07;12.32;;;5.22;;
51810;SDS011;52468;40.116;18.296;2022-08-27T09:47:42;9.15;;;4.85;;
51810;SDS011;52468;40.116;18.296;2022-08-27T09:50:11;9.95;;;4.18;;
51810;SDS011;52468;40.116;18.296;2022-08-27T09:53:00;6.43;;;4.60;;
51810;SDS011;52468;40.116;18.296;2022-08-27T09:58:06;8.25;;;4.05;;
51810;SDS011;52468;40.116;18.296;2022-08-27T10:00:46;13.45;;;4.60;;
51810;SDS011;52468;40.116;18.296;2022-08-27T10:03:18;10.90;;;5.03;;
51810;SDS011;52468;40.116;18.296;2022-08-27T10:05:49;10.00;;;5.10;;
51810;SDS011;52468;40.116;18.296;2022-08-27T10:08:23;11.45;;;4.25;;
51810;SDS011;52468;40.116;18.296;2022-08-27T10:10:58;11.00;;;4.05;;
51810;SDS011;52468;40.116;18.296;2022-08-27T10:13:39;7.50;;;3.92;;
51810;SDS011;52468;40.116;18.296;2022-08-27T10:27:53;8.68;;;3.95;;
51810;SDS011;52468;40.116;18.296;2022-08-27T10:30:43;6.45;;;3.75;;
51810;SDS011;52468;40.116;18.296;2022-08-27T10:33:47;8.33;;;3.60;;
51810;SDS011;52468;40.116;18.296;2022-08-27T10:39:38;8.40;;;4.18;;
51810;SDS011;52468;40.116;18.296;2022-08-27T10:42:31;8.02;;;4.28;;
51810;SDS011;52468;40.116;18.296;2022-08-27T10:48:32;5.78;;;3.33;;
51810;SDS011;52468;40.116;18.296;2022-08-27T10:53:46;11.35;;;5.20;;
51810;SDS011;52468;40.116;18.296;2022-08-27T10:57:22;9.75;;;4.70;;
51810;SDS011;52468;40.116;18.296;2022-08-27T11:00:16;6.50;;;5.00;;
51810;SDS011;52468;40.116;18.296;2022-08-27T11:08:00;9.00;;;5.22;;
51810;SDS011;52468;40.116;18.296;2022-08-27T11:10:37;6.50;;;5.20;;
51810;SDS011;52468;40.116;18.296;2022-08-27T11:13:52;9.77;;;5.75;;
51810;SDS011;52468;40.116;18.296;2022-08-27T11:16:16;8.13;;;5.35;;
51810;SDS011;52468;40.116;18.296;2022-08-27T11:18:52;7.85;;;5.55;;
51810;SDS011;52468;40.116;18.296;2022-08-27T11:21:29;10.07;;;5.85;;
51810;SDS011;52468;40.116;18.296;2022-08-27T11:24:12;8.45;;;5.22;;
51810;SDS011;52468;40.116;18.296;2022-08-27T11:27:05;11.02;;;5.70;;
51810;SDS011;52468;40.116;18.296;2022-08-27T11:30:17;7.93;;;5.47;;
51810;SDS011;52468;40.116;18.296;2022-08-27T11:35:29;10.27;;;5.63;;
51810;SDS011;52468;40.116;18.296;2022-08-27T11:38:24;7.40;;;6.18;;
51810;SDS011;52468;40.116;18.296;2022-08-27T11:43:58;6.13;;;5.13;;
51810;SDS011;52468;40.116;18.296;2022-08-27T11:46:41;12.68;;;5.25;;
51810;SDS011;52468;40.116;18.296;2022-08-27T11:49:24;10.15;;;5.93;;
51810;SDS011;52468;40.116;18.296;2022-08-27T11:51:57;13.32;;;5.28;;
51810;SDS011;52468;40.116;18.296;2022-08-27T11:54:42;10.20;;;4.97;;
51810;SDS011;52468;40.116;18.296;2022-08-27T11:57:23;10.48;;;5.88;;
51810;SDS011;52468;40.116;18.296;2022-08-27T11:59:52;10.43;;;5.05;;
51810;SDS011;52468;40.116;18.296;2022-08-27T12:02:23;8.68;;;4.68;;
51810;SDS011;52468;40.116;18.296;2022-08-27T12:05:05;8.68;;;5.07;;
51810;SDS011;52468;40.116;18.296;2022-08-27T12:07:49;11.27;;;4.82;;
51810;SDS011;52468;40.116;18.296;2022-08-27T12:10:29;9.60;;;5.43;;
51810;SDS011;52468;40.116;18.296;2022-08-27T12:14:19;6.05;;;5.07;;
51810;SDS011;52468;40.116;18.296;2022-08-27T12:16:35;15.65;;;5.43;;
51810;SDS011;52468;40.116;18.296;2022-08-27T12:19:25;11.80;;;5.95;;
51810;SDS011;52468;40.116;18.296;2022-08-27T12:25:19;9.27;;;5.28;;
51810;SDS011;52468;40.116;18.296;2022-08-27T12:27:59;10.07;;;5.50;;
51810;SDS011;52468;40.116;18.296;2022-08-27T12:30:32;8.50;;;5.60;;
51810;SDS011;52468;40.116;18.296;2022-08-27T12:33:04;13.32;;;5.05;;
51810;SDS011;52468;40.116;18.296;2022-08-27T12:35:56;9.18;;;5.60;;
51810;SDS011;52468;40.116;18.296;2022-08-27T12:41:00;9.07;;;5.43;;
51810;SDS011;52468;40.116;18.296;2022-08-27T12:43:35;7.30;;;5.47;;
51810;SDS011;52468;40.116;18.296;2022-08-27T12:48:43;11.68;;;5.40;;
51810;SDS011;52468;40.116;18.296;2022-08-27T12:51:33;8.70;;;4.70;;
51810;SDS011;52468;40.116;18.296;2022-08-27T13:04:54;8.77;;;5.85;;
51810;SDS011;52468;40.116;18.296;2022-08-27T13:07:24;8.40;;;5.50;;
51810;SDS011;52468;40.116;18.296;2022-08-27T13:09:53;8.65;;;6.15;;
51810;SDS011;52468;40.116;18.296;2022-08-27T13:12:23;9.88;;;5.63;;
51810;SDS011;52468;40.116;18.296;2022-08-27T13:14:51;5.60;;;4.63;;
51810;SDS011;52468;40.116;18.296;2022-08-27T13:17:20;7.13;;;5.38;;
51810;SDS011;52468;40.116;18.296;2022-08-27T13:19:55;7.88;;;5.82;;
51810;SDS011;52468;40.116;18.296;2022-08-27T13:22:30;10.77;;;5.28;;
51810;SDS011;52468;40.116;18.296;2022-08-27T13:25:05;9.43;;;5.82;;
51810;SDS011;52468;40.116;18.296;2022-08-27T13:27:50;7.53;;;6.60;;
51810;SDS011;52468;40.116;18.296;2022-08-27T13:30:20;9.70;;;6.82;;
51810;SDS011;52468;40.116;18.296;2022-08-27T13:32:49;7.55;;;5.07;;
51810;SDS011;52468;40.116;18.296;2022-08-27T13:35:18;8.15;;;5.82;;
51810;SDS011;52468;40.116;18.296;2022-08-27T13:37:48;12.63;;;6.03;;
51810;SDS011;52468;40.116;18.296;2022-08-27T13:43:04;8.15;;;6.72;;
51810;SDS011;52468;40.116;18.296;2022-08-27T13:45:37;17.35;;;9.13;;
51810;SDS011;52468;40.116;18.296;2022-08-27T13:48:07;19.13;;;9.50;;
51810;SDS011;52468;40.116;18.296;2022-08-27T13:50:38;17.83;;;8.10;;
51810;SDS011;52468;40.116;18.296;2022-08-27T13:53:20;15.73;;;8.60;;
51810;SDS011;52468;40.116;18.296;2022-08-27T13:56:09;17.30;;;8.23;;
51810;SDS011;52468;40.116;18.296;2022-08-27T13:58:37;18.23;;;10.73;;
51810;SDS011;52468;40.116;18.296;2022-08-27T14:01:07;13.60;;;8.13;;
51810;SDS011;52468;40.116;18.296;2022-08-27T14:03:49;14.80;;;6.97;;
51810;SDS011;52468;40.116;18.296;2022-08-27T14:06:28;12.20;;;6.50;;
51810;SDS011;52468;40.116;18.296;2022-08-27T14:12:01;21.77;;;9.70;;
51810;SDS011;52468;40.116;18.296;2022-08-27T14:14:36;19.83;;;11.13;;
51810;SDS011;52468;40.116;18.296;2022-08-27T14:17:18;24.20;;;14.00;;
51810;SDS011;52468;40.116;18.296;2022-08-27T14:19:50;18.07;;;10.13;;
51810;SDS011;52468;40.116;18.296;2022-08-27T14:22:18;27.67;;;10.50;;
51810;SDS011;52468;40.116;18.296;2022-08-27T14:24:46;20.60;;;12.33;;
51810;SDS011;52468;40.116;18.296;2022-08-27T14:27:14;16.40;;;10.07;;
51810;SDS011;52468;40.116;18.296;2022-08-27T14:29:42;16.17;;;9.37;;
51810;SDS011;52468;40.116;18.296;2022-08-27T14:32:11;11.07;;;7.83;;
51810;SDS011;52468;40.116;18.296;2022-08-27T14:34:39;20.33;;;8.65;;
51810;SDS011;52468;40.116;18.296;2022-08-27T14:37:06;11.02;;;7.65;;
51810;SDS011;52468;40.116;18.296;2022-08-27T14:39:35;11.02;;;6.78;;
51810;SDS011;52468;40.116;18.296;2022-08-27T14:42:03;13.88;;;7.07;;
51810;SDS011;52468;40.116;18.296;2022-08-27T14:44:31;12.02;;;7.18;;
51810;SDS011;52468;40.116;18.296;2022-08-27T14:46:59;12.25;;;6.50;;
51810;SDS011;52468;40.116;18.296;2022-08-27T14:49:30;8.18;;;6.13;;
51810;SDS011;52468;40.116;18.296;2022-08-27T14:52:01;10.40;;;5.97;;
51810;SDS011;52468;40.116;18.296;2022-08-27T14:54:31;11.60;;;6.07;;
51810;SDS011;52468;40.116;18.296;2022-08-27T14:57:00;11.35;;;5.75;;
51810;SDS011;52468;40.116;18.296;2022-08-27T14:59:28;9.98;;;6.85;;
51810;SDS011;52468;40.116;18.296;2022-08-27T15:01:58;10.23;;;6.30;;
51810;SDS011;52468;40.116;18.296;2022-08-27T15:04:28;10.65;;;7.15;;
51810;SDS011;52468;40.116;18.296;2022-08-27T15:06:56;9.00;;;5.13;;
51810;SDS011;52468;40.116;18.296;2022-08-27T15:09:25;10.00;;;6.45;;
51810;SDS011;52468;40.116;18.296;2022-08-27T15:11:53;10.63;;;6.40;;
51810;SDS011;52468;40.116;18.296;2022-08-27T15:14:27;10.85;;;6.07;;
51810;SDS011;52468;40.116;18.296;2022-08-27T15:16:57;10.20;;;5.65;;
51810;SDS011;52468;40.116;18.296;2022-08-27T15:19:27;8.65;;;6.22;;
51810;SDS011;52468;40.116;18.296;2022-08-27T15:21:57;11.10;;;6.22;;
51810;SDS011;52468;40.116;18.296;2022-08-27T15:24:44;15.40;;;8.18;;
51810;SDS011;52468;40.116;18.296;2022-08-27T15:27:15;10.20;;;5.70;;
51810;SDS011;52468;40.116;18.296;2022-08-27T15:29:43;8.75;;;6.13;;
51810;SDS011;52468;40.116;18.296;2022-08-27T15:32:16;9.77;;;5.20;;
51810;SDS011;52468;40.116;18.296;2022-08-27T15:35:08;10.93;;;5.68;;
51810;SDS011;52468;40.116;18.296;2022-08-27T15:37:40;7.82;;;5.65;;
51810;SDS011;52468;40.116;18.296;2022-08-27T15:40:09;6.25;;;5.07;;
51810;SDS011;52468;40.116;18.296;2022-08-27T15:42:38;10.02;;;5.45;;
51810;SDS011;52468;40.116;18.296;2022-08-27T15:45:07;8.65;;;6.22;;
51810;SDS011;52468;40.116;18.296;2022-08-27T15:47:35;11.30;;;5.55;;
51810;SDS011;52468;40.116;18.296;2022-08-27T15:50:04;7.70;;;5.88;;
51810;SDS011;52468;40.116;18.296;2022-08-27T15:52:33;8.57;;;4.97;;
51810;SDS011;52468;40.116;18.296;2022-08-27T15:55:03;10.13;;;5.32;;
51810;SDS011;52468;40.116;18.296;2022-08-27T15:57:31;11.10;;;6.03;;
51810;SDS011;52468;40.116;18.296;2022-08-27T15:59:59;5.95;;;5.35;;
51810;SDS011;52468;40.116;18.296;2022-08-27T16:02:30;8.18;;;4.82;;
51810;SDS011;52468;40.116;18.296;2022-08-27T16:04:58;4.78;;;4.20;;
51810;SDS011;52468;40.116;18.296;2022-08-27T16:07:27;12.55;;;5.15;;
51810;SDS011;52468;40.116;18.296;2022-08-27T16:09:54;10.40;;;4.43;;
51810;SDS011;52468;40.116;18.296;2022-08-27T16:12:22;7.65;;;4.72;;
51810;SDS011;52468;40.116;18.296;2022-08-27T16:14:50;5.30;;;4.68;;